createdAt,value
2018-05-23T00:02:15.067Z,101858.38
2018-05-23T00:04:42.687Z,101853.97
2018-05-23T00:07:10.326Z,101854.34
2018-05-23T00:09:37.939Z,101855.53
2018-05-23T00:12:05.575Z,101851.13
2018-05-23T00:14:33.207Z,101847.13
2018-05-23T00:17:00.839Z,101851.45
2018-05-23T00:19:28.454Z,101852.27
2018-05-23T00:21:56.194Z,101853.50
2018-05-23T00:24:23.863Z,101858.27
2018-05-23T00:26:51.503Z,101859.47
2018-05-23T00:29:19.123Z,101864.17
2018-05-23T00:31:46.842Z,101863.23
2018-05-23T00:34:14.506Z,101868.77
2018-05-23T00:36:42.171Z,101861.27
2018-05-23T00:39:09.787Z,101867.66
2018-05-23T00:41:37.487Z,101870.63
2018-05-23T00:44:05.160Z,101870.18
2018-05-23T00:46:32.814Z,101877.94
2018-05-23T00:49:00.481Z,101882.26
2018-05-23T00:51:28.092Z,101889.15
2018-05-23T00:53:55.805Z,101886.05
2018-05-23T00:56:23.472Z,101887.33
2018-05-23T00:58:51.135Z,101882.07
2018-05-23T01:01:18.755Z,101888.08
2018-05-23T01:03:46.454Z,101889.31
2018-05-23T01:06:14.117Z,101889.24
2018-05-23T01:08:41.759Z,101890.85
2018-05-23T01:11:09.439Z,101898.16
2018-05-23T01:13:37.406Z,101898.09
2018-05-23T01:16:05.085Z,101896.29
2018-05-23T01:18:32.838Z,101904.89
2018-05-23T01:21:00.507Z,101906.55
2018-05-23T01:23:28.152Z,101907.34
2018-05-23T01:25:55.833Z,101906.80
2018-05-23T01:28:23.477Z,101912.78
2018-05-23T01:30:51.097Z,101908.80
2018-05-23T01:33:18.740Z,101913.02
2018-05-23T01:35:46.361Z,101915.98
2018-05-23T01:38:14.004Z,101917.09
2018-05-23T01:40:41.712Z,101918.27
2018-05-23T01:43:09.355Z,101922.06
2018-05-23T01:45:36.966Z,101923.25
2018-05-23T01:48:04.607Z,101916.69
2018-05-23T01:50:32.219Z,101923.96
2018-05-23T01:52:59.915Z,101921.23
2018-05-23T01:55:27.540Z,101918.90
2018-05-23T01:57:55.240Z,101931.33
2018-05-23T02:00:22.850Z,101927.27
2018-05-23T02:02:50.558Z,101931.87
2018-05-23T02:05:18.200Z,101931.72
2018-05-23T02:07:45.824Z,101935.47
2018-05-23T02:10:13.551Z,101935.28
2018-05-23T02:12:41.179Z,101931.59
2018-05-23T02:15:08.822Z,101926.67
2018-05-23T02:17:36.430Z,101931.35
2018-05-23T02:20:04.079Z,101930.42
2018-05-23T02:22:31.707Z,101929.05
2018-05-23T02:24:59.355Z,101931.98
2018-05-23T02:27:26.983Z,101928.47
2018-05-23T02:29:54.652Z,101931.48
2018-05-23T02:32:22.315Z,101930.56
2018-05-23T02:34:49.946Z,101933.14
2018-05-23T02:37:17.637Z,101939.20
2018-05-23T02:39:45.295Z,101939.19
2018-05-23T02:42:12.955Z,101938.27
2018-05-23T02:44:40.625Z,101939.55
2018-05-23T02:47:08.309Z,101943.00
2018-05-23T02:49:35.894Z,101942.50
2018-05-23T02:52:03.611Z,101944.25
2018-05-23T02:54:31.246Z,101948.99
2018-05-23T02:56:59.082Z,101955.03
2018-05-23T02:59:26.724Z,101953.67
2018-05-23T03:01:54.344Z,101950.97
2018-05-23T03:04:22.014Z,101954.30
2018-05-23T03:06:49.632Z,101951.60
2018-05-23T03:09:17.404Z,101956.28
2018-05-23T03:11:45.117Z,101960.08
2018-05-23T03:14:12.785Z,101955.24
2018-05-23T03:16:40.434Z,101964.70
2018-05-23T03:19:08.094Z,101961.72
2018-05-23T03:21:35.743Z,101967.70
2018-05-23T03:24:03.364Z,101972.41
2018-05-23T03:26:31.089Z,101974.62
2018-05-23T03:28:58.755Z,101983.81
2018-05-23T03:31:26.396Z,101982.16
2018-05-23T03:33:54.023Z,101991.34
2018-05-23T03:36:21.667Z,101987.51
2018-05-23T03:38:49.289Z,101987.10
2018-05-23T03:41:16.959Z,102002.73
2018-05-23T03:43:44.570Z,102004.98
2018-05-23T03:46:12.206Z,102001.60
2018-05-23T03:48:39.880Z,101997.73
2018-05-23T03:51:07.527Z,102003.45
2018-05-23T03:53:35.179Z,102007.41
2018-05-23T03:56:02.824Z,102010.15
2018-05-23T03:58:30.496Z,102021.72
2018-05-23T04:01:10.038Z,102019.22
2018-05-23T04:03:49.484Z,102022.94
2018-05-23T04:09:21.355Z,102027.14
2018-05-23T04:11:48.991Z,102023.33
2018-05-23T04:14:16.688Z,102031.22
2018-05-23T04:16:44.336Z,102037.14
2018-05-23T04:19:12.008Z,102036.58
2018-05-23T04:21:39.671Z,102038.92
2018-05-23T04:24:07.382Z,102038.70
2018-05-23T04:26:34.945Z,102047.52
2018-05-23T04:29:02.595Z,102047.92
2018-05-23T04:31:30.324Z,102044.36
2018-05-23T04:33:57.988Z,102039.38
2018-05-23T04:36:25.629Z,102045.05
2018-05-23T04:38:53.284Z,102053.70
2018-05-23T04:41:20.975Z,102053.19
2018-05-23T04:43:48.636Z,102058.31
2018-05-23T04:46:16.251Z,102063.11
2018-05-23T04:48:43.902Z,102069.52
2018-05-23T04:51:11.617Z,102063.73
2018-05-23T04:53:39.259Z,102060.56
2018-05-23T04:56:06.875Z,102066.11
2018-05-23T04:58:34.617Z,102066.45
2018-05-23T05:01:02.234Z,102076.78
2018-05-23T05:03:29.868Z,102075.83
2018-05-23T05:05:57.474Z,102072.69
2018-05-23T05:08:25.163Z,102080.87
2018-05-23T05:10:52.775Z,102082.61
2018-05-23T05:13:20.489Z,102086.53
2018-05-23T05:15:48.138Z,102094.37
2018-05-23T05:18:15.775Z,102096.95
2018-05-23T05:20:43.472Z,102098.20
2018-05-23T05:23:11.133Z,102097.73
2018-05-23T05:25:38.747Z,102099.07
2018-05-23T05:28:06.449Z,102095.63
2018-05-23T05:30:34.119Z,102100.91
2018-05-23T05:33:01.757Z,102115.33
2018-05-23T05:35:29.449Z,102113.64
2018-05-23T05:37:57.244Z,102113.33
2018-05-23T05:40:24.866Z,102115.69
2018-05-23T05:42:52.536Z,102117.17
2018-05-23T05:45:20.152Z,102113.42
2018-05-23T05:47:47.808Z,102113.19
2018-05-23T05:50:15.425Z,102116.84
2018-05-23T05:52:43.087Z,102109.23
2018-05-23T05:55:10.751Z,102122.09
2018-05-23T05:57:38.398Z,102118.83
2018-05-23T06:00:06.075Z,102127.39
2018-05-23T06:02:33.687Z,102131.99
2018-05-23T06:05:01.323Z,102135.70
2018-05-23T06:07:28.955Z,102138.94
2018-05-23T06:09:56.627Z,102138.70
2018-05-23T06:12:24.242Z,102148.05
2018-05-23T06:14:51.944Z,102151.25
2018-05-23T06:17:19.559Z,102153.56
2018-05-23T06:19:47.190Z,102154.11
2018-05-23T06:22:14.833Z,102162.53
2018-05-23T06:24:42.492Z,102166.97
2018-05-23T06:27:10.104Z,102165.70
2018-05-23T06:29:37.744Z,102165.72
2018-05-23T06:32:05.375Z,102164.48
2018-05-23T06:34:33.031Z,102168.49
2018-05-23T06:37:00.662Z,102171.20
2018-05-23T06:39:28.363Z,102170.80
2018-05-23T06:41:56.029Z,102182.68
2018-05-23T06:44:23.668Z,102180.11
2018-05-23T06:46:51.279Z,102180.17
2018-05-23T06:49:18.921Z,102180.66
2018-05-23T06:51:46.611Z,102186.84
2018-05-23T06:54:14.226Z,102183.81
2018-05-23T06:56:41.900Z,102189.98
2018-05-23T06:59:09.539Z,102194.41
2018-05-23T07:01:37.150Z,102190.48
2018-05-23T07:04:04.792Z,102200.59
2018-05-23T07:06:32.427Z,102201.48
2018-05-23T07:09:00.040Z,102197.54
2018-05-23T07:11:27.677Z,102202.84
2018-05-23T07:13:55.333Z,102207.69
2018-05-23T07:16:22.985Z,102205.51
2018-05-23T07:18:50.655Z,102201.59
2018-05-23T07:21:18.296Z,102202.48
2018-05-23T07:23:45.912Z,102211.27
2018-05-23T07:26:13.551Z,102204.28
2018-05-23T07:28:41.207Z,102204.73
2018-05-23T07:31:08.842Z,102205.19
2018-05-23T07:33:36.445Z,102216.16
2018-05-23T07:36:04.078Z,102209.59
2018-05-23T07:38:31.753Z,102198.16
2018-05-23T07:40:59.382Z,102203.43
2018-05-23T07:43:27.076Z,102203.44
2018-05-23T07:45:54.771Z,102205.59
2018-05-23T07:48:22.403Z,102209.54
2018-05-23T07:50:50.040Z,102217.45
2018-05-23T07:53:17.657Z,102205.12
2018-05-23T07:55:45.382Z,102205.53
2018-05-23T07:58:13.043Z,102209.91
2018-05-23T08:00:40.710Z,102209.02
2018-05-23T08:03:08.319Z,102204.58
2018-05-23T08:05:35.956Z,102212.44
2018-05-23T08:08:03.601Z,102201.00
2018-05-23T08:10:31.230Z,102199.22
2018-05-23T08:12:58.843Z,102204.43
2018-05-23T08:15:26.490Z,102205.30
2018-05-23T08:17:54.103Z,102195.58
2018-05-23T08:20:21.715Z,102202.14
2018-05-23T08:22:49.342Z,102195.52
2018-05-23T08:25:17.031Z,102195.91
2018-05-23T08:27:44.695Z,102196.31
2018-05-23T08:30:12.450Z,102204.17
2018-05-23T08:32:40.083Z,102209.84
2018-05-23T08:35:07.778Z,102210.70
2018-05-23T08:37:35.403Z,102212.41
2018-05-23T08:40:03.015Z,102206.20
2018-05-23T08:42:30.681Z,102206.14
2018-05-23T08:44:58.294Z,102206.11
2018-05-23T08:47:25.926Z,102206.48
2018-05-23T08:49:53.535Z,102216.05
2018-05-23T08:52:21.219Z,102211.59
2018-05-23T08:54:48.883Z,102213.28
2018-05-23T08:57:16.519Z,102214.98
2018-05-23T08:59:44.132Z,102218.86
2018-05-23T09:02:11.868Z,102213.94
2018-05-23T09:04:39.506Z,102212.13
2018-05-23T09:07:07.190Z,102218.66
2018-05-23T09:09:34.793Z,102219.09
2018-05-23T09:12:02.430Z,102217.80
2018-05-23T09:14:30.045Z,102221.34
2018-05-23T09:16:57.734Z,102215.19
2018-05-23T09:19:25.349Z,102218.66
2018-05-23T09:21:52.987Z,102223.95
2018-05-23T09:24:20.604Z,102221.28
2018-05-23T09:26:48.288Z,102224.78
2018-05-23T09:29:15.907Z,102227.00
2018-05-23T09:31:43.515Z,102230.06
2018-05-23T09:34:11.175Z,102231.38
2018-05-23T09:36:38.826Z,102216.37
2018-05-23T09:39:06.542Z,102221.67
2018-05-23T09:41:34.077Z,102235.38
2018-05-23T09:44:01.823Z,102225.66
2018-05-23T09:46:29.436Z,102226.09
2018-05-23T09:48:57.137Z,102226.03
2018-05-23T09:51:24.756Z,102219.38
2018-05-23T09:53:52.471Z,102227.73
2018-05-23T09:56:20.089Z,102225.04
2018-05-23T09:58:47.790Z,102237.30
2018-05-23T10:01:15.404Z,102232.85
2018-05-23T10:03:43.051Z,102237.22
2018-05-23T10:06:10.669Z,102239.80
2018-05-23T10:08:38.306Z,102234.03
2018-05-23T10:11:05.919Z,102258.26
2018-05-23T10:13:33.571Z,102247.22
2018-05-23T10:16:01.183Z,102251.16
2018-05-23T10:18:28.899Z,102246.27
2018-05-23T10:20:56.520Z,102244.41
2018-05-23T10:23:24.150Z,102248.81
2018-05-23T10:25:51.770Z,102243.52
2018-05-23T10:28:19.435Z,102239.05
2018-05-23T10:30:47.047Z,102255.30
2018-05-23T10:33:14.746Z,102251.30
2018-05-23T10:35:42.340Z,102254.72
2018-05-23T10:38:09.978Z,102258.13
2018-05-23T10:40:37.600Z,102258.53
2018-05-23T10:43:05.322Z,102254.41
2018-05-23T10:45:32.934Z,102261.39
2018-05-23T10:48:00.547Z,102259.48
2018-05-23T10:50:28.200Z,102266.84
2018-05-23T10:52:55.855Z,102260.94
2018-05-23T10:55:23.495Z,102270.08
2018-05-23T10:57:51.177Z,102269.55
2018-05-23T11:00:18.851Z,102277.47
2018-05-23T11:02:46.586Z,102290.73
2018-05-23T11:05:14.178Z,102273.49
2018-05-23T11:07:41.782Z,102272.62
2018-05-23T11:10:09.415Z,102269.54
2018-05-23T11:12:37.036Z,102276.16
2018-05-23T11:15:04.773Z,102273.47
2018-05-23T11:17:32.388Z,102270.75
2018-05-23T11:20:00.024Z,102268.48
2018-05-23T11:22:27.701Z,102279.54
2018-05-23T11:24:55.336Z,102271.14
2018-05-23T11:27:23.039Z,102274.70
2018-05-23T11:29:50.777Z,102271.26
2018-05-23T11:32:18.315Z,102276.58
2018-05-23T11:34:45.954Z,102275.28
2018-05-23T11:37:13.568Z,102273.61
2018-05-23T11:39:41.249Z,102275.39
2018-05-23T11:42:08.854Z,102268.72
2018-05-23T11:44:36.577Z,102275.71
2018-05-23T11:47:04.178Z,102271.69
2018-05-23T11:49:31.807Z,102281.72
2018-05-23T11:51:59.445Z,102272.78
2018-05-23T11:54:27.122Z,102284.25
2018-05-23T11:56:54.737Z,102276.75
2018-05-23T11:59:22.345Z,102284.70
2018-05-23T12:01:50.208Z,102285.66
2018-05-23T12:04:17.735Z,102290.06
2018-05-23T12:06:45.436Z,102279.45
2018-05-23T12:09:13.085Z,102282.12
2018-05-23T12:11:40.732Z,102275.00
2018-05-23T12:14:08.424Z,102280.73
2018-05-23T12:16:36.075Z,102273.97
2018-05-23T12:19:03.688Z,102274.77
2018-05-23T12:21:31.408Z,102280.00
2018-05-23T12:23:59.028Z,102287.09
2018-05-23T12:26:26.667Z,102273.92
2018-05-23T12:28:54.286Z,102276.65
2018-05-23T12:31:21.919Z,102278.88
2018-05-23T12:33:49.619Z,102284.17
2018-05-23T12:36:17.271Z,102275.70
2018-05-23T12:38:44.945Z,102276.09
2018-05-23T12:41:12.607Z,102277.37
2018-05-23T12:43:40.257Z,102280.03
2018-05-23T12:46:07.895Z,102275.27
2018-05-23T12:48:35.519Z,102267.01
2018-05-23T12:51:03.156Z,102282.11
2018-05-23T12:53:30.820Z,102279.00
2018-05-23T12:55:58.477Z,102279.89
2018-05-23T12:58:26.140Z,102275.95
2018-05-23T13:00:53.807Z,102282.19
2018-05-23T13:03:21.487Z,102268.91
2018-05-23T13:05:49.086Z,102276.39
2018-05-23T13:08:16.789Z,102271.94
2018-05-23T13:10:44.435Z,102269.70
2018-05-23T13:13:12.106Z,102275.00
2018-05-23T13:15:39.774Z,102271.45
2018-05-23T13:18:07.398Z,102270.54
2018-05-23T13:20:35.109Z,102273.69
2018-05-23T13:23:02.744Z,102283.42
2018-05-23T13:25:30.420Z,102274.53
2018-05-23T13:27:58.174Z,102274.00
2018-05-23T13:30:25.718Z,102281.86
2018-05-23T13:32:53.359Z,102278.71
2018-05-23T13:35:20.976Z,102280.88
2018-05-23T13:37:48.611Z,102275.10
2018-05-23T13:40:16.228Z,102274.67
2018-05-23T13:42:43.858Z,102274.73
2018-05-23T13:45:11.524Z,102273.39
2018-05-23T13:47:39.153Z,102266.36
2018-05-23T13:50:06.769Z,102265.95
2018-05-23T13:52:34.398Z,102273.42
2018-05-23T13:55:02.148Z,102266.77
2018-05-23T13:57:29.732Z,102277.78
2018-05-23T13:59:57.352Z,102266.23
2018-05-23T14:02:24.988Z,102266.23
2018-05-23T14:04:52.590Z,102264.91
2018-05-23T14:07:20.223Z,102270.22
2018-05-23T14:09:47.860Z,102272.44
2018-05-23T14:12:15.611Z,102269.86
2018-05-23T14:14:43.214Z,102271.28
2018-05-23T14:17:10.847Z,102272.71
2018-05-23T14:19:38.461Z,102270.97
2018-05-23T14:22:06.152Z,102270.16
2018-05-23T14:24:33.763Z,102274.15
2018-05-23T14:27:01.377Z,102272.44
2018-05-23T14:29:29.016Z,102287.00
2018-05-23T14:31:56.621Z,102282.16
2018-05-23T14:34:24.259Z,102267.15
2018-05-23T14:36:51.876Z,102278.23
2018-05-23T14:39:19.516Z,102273.37
2018-05-23T14:41:47.151Z,102272.95
2018-05-23T14:44:14.801Z,102265.06
2018-05-23T14:46:42.472Z,102273.89
2018-05-23T14:49:10.225Z,102260.20
2018-05-23T14:51:37.843Z,102272.16
2018-05-23T14:54:05.564Z,102273.05
2018-05-23T14:56:33.225Z,102268.59
2018-05-23T14:59:00.875Z,102267.22
2018-05-23T15:01:28.547Z,102269.52
2018-05-23T15:03:56.179Z,102268.25
2018-05-23T15:06:23.872Z,102274.90
2018-05-23T15:08:51.536Z,102269.59
2018-05-23T15:11:19.200Z,102268.66
2018-05-23T15:13:46.835Z,102272.61
2018-05-23T15:16:14.452Z,102269.06
2018-05-23T15:18:42.079Z,102260.67
2018-05-23T15:21:09.738Z,102256.73
2018-05-23T15:23:37.375Z,102251.83
2018-05-23T15:26:05.003Z,102263.28
2018-05-23T15:28:32.645Z,102257.11
2018-05-23T15:31:00.260Z,102258.52
2018-05-23T15:33:27.964Z,102253.34
2018-05-23T15:35:55.611Z,102254.38
2018-05-23T15:38:23.377Z,102257.60
2018-05-23T15:40:50.983Z,102248.38
2018-05-23T15:43:18.587Z,102256.40
2018-05-23T15:45:46.258Z,102247.58
2018-05-23T15:48:13.876Z,102250.66
2018-05-23T15:50:41.520Z,102255.53
2018-05-23T15:53:09.152Z,102252.42
2018-05-23T15:55:36.797Z,102255.98
2018-05-23T15:58:04.402Z,102256.91
2018-05-23T16:00:32.030Z,102248.98
2018-05-23T16:02:59.688Z,102250.33
2018-05-23T16:05:27.311Z,102254.30
2018-05-23T16:07:55.018Z,102251.23
2018-05-23T16:10:22.649Z,102255.19
2018-05-23T16:12:50.352Z,102257.91
2018-05-23T16:15:17.983Z,102253.07
2018-05-23T16:17:45.590Z,102255.75
2018-05-23T16:20:13.236Z,102257.95
2018-05-23T16:22:40.903Z,102258.87
2018-05-23T16:25:08.544Z,102253.05
2018-05-23T16:27:36.168Z,102255.92
2018-05-23T16:30:03.799Z,102254.27
2018-05-23T16:32:31.420Z,102256.92
2018-05-23T16:34:59.046Z,102258.23
2018-05-23T16:37:26.762Z,102254.69
2018-05-23T16:39:54.404Z,102257.36
2018-05-23T16:42:22.091Z,102258.75
2018-05-23T16:44:49.732Z,102260.54
2018-05-23T16:47:17.347Z,102267.20
2018-05-23T16:49:44.978Z,102263.34
2018-05-23T16:52:12.718Z,102258.44
2018-05-23T16:54:40.288Z,102262.53
2018-05-23T16:57:07.928Z,102257.63
2018-05-23T16:59:35.555Z,102266.80
2018-05-23T17:02:03.187Z,102264.08
2018-05-23T17:04:30.854Z,102264.41
2018-05-23T17:06:58.516Z,102272.52
2018-05-23T17:09:26.129Z,102266.98
2018-05-23T17:11:53.841Z,102273.22
2018-05-23T17:14:21.451Z,102263.58
2018-05-23T17:16:49.083Z,102270.66
2018-05-23T17:19:16.717Z,102272.04
2018-05-23T17:21:44.388Z,102274.20
2018-05-23T17:24:12.037Z,102280.93
2018-05-23T17:26:39.700Z,102282.44
2018-05-23T17:29:07.372Z,102284.98
2018-05-23T17:31:35.012Z,102279.84
2018-05-23T17:34:02.615Z,102277.66
2018-05-23T17:36:30.252Z,102288.98
2018-05-23T17:38:57.922Z,102306.41
2018-05-23T17:41:25.563Z,102295.55
2018-05-23T17:43:53.176Z,102295.23
2018-05-23T17:46:20.907Z,102296.62
2018-05-23T17:48:48.522Z,102299.19
2018-05-23T17:51:16.155Z,102300.83
2018-05-23T17:53:43.786Z,102310.30
2018-05-23T17:56:11.456Z,102305.22
2018-05-23T17:58:39.120Z,102312.83
2018-05-23T18:01:06.764Z,102314.70
2018-05-23T18:03:34.375Z,102312.12
2018-05-23T18:06:02.239Z,102317.01
2018-05-23T18:08:29.757Z,102314.86
2018-05-23T18:10:57.370Z,102322.39
2018-05-23T18:13:25.004Z,102324.60
2018-05-23T18:15:52.609Z,102322.86
2018-05-23T18:18:20.308Z,102325.93
2018-05-23T18:20:47.975Z,102328.13
2018-05-23T18:23:15.639Z,102324.17
2018-05-23T18:25:43.255Z,102329.02
2018-05-23T18:28:10.975Z,102336.04
2018-05-23T18:30:38.533Z,102336.03
2018-05-23T18:33:06.196Z,102334.70
2018-05-23T18:35:33.842Z,102336.45
2018-05-23T18:38:01.473Z,102338.17
2018-05-23T18:40:29.087Z,102338.59
2018-05-23T18:42:56.732Z,102338.96
2018-05-23T18:45:24.347Z,102342.02
2018-05-23T18:47:52.050Z,102343.29
2018-05-23T18:50:19.724Z,102340.20
2018-05-23T18:52:47.360Z,102337.53
2018-05-23T18:55:14.979Z,102347.14
2018-05-23T18:57:42.623Z,102346.69
2018-05-23T19:00:10.237Z,102346.64
2018-05-23T19:02:38.011Z,102357.12
2018-05-23T19:05:06.081Z,102357.96
2018-05-23T19:07:33.710Z,102360.52
2018-05-23T19:10:01.437Z,102360.89
2018-05-23T19:12:29.071Z,102361.27
2018-05-23T19:14:57.070Z,102370.85
2018-05-23T19:17:24.723Z,102373.02
2018-05-23T19:19:52.603Z,102371.63
2018-05-23T19:22:20.090Z,102371.59
2018-05-23T19:24:47.723Z,102372.41
2018-05-23T19:27:15.343Z,102375.86
2018-05-23T19:29:43.040Z,102375.80
2018-05-23T19:32:10.700Z,102373.56
2018-05-23T19:34:38.326Z,102383.11
2018-05-23T19:37:05.946Z,102387.45
2018-05-23T19:39:33.578Z,102385.17
2018-05-23T19:42:01.188Z,102396.06
2018-05-23T19:44:28.822Z,102396.45
2018-05-23T19:46:56.470Z,102399.89
2018-05-23T19:49:24.109Z,102399.33
2018-05-23T19:51:51.786Z,102400.55
2018-05-23T19:54:19.418Z,102407.05
2018-05-23T19:56:47.124Z,102406.13
2018-05-23T19:59:14.780Z,102411.73
2018-05-23T20:01:42.408Z,102405.95
2018-05-23T20:04:10.059Z,102405.45
2018-05-23T20:06:37.675Z,102403.64
2018-05-23T20:09:06.037Z,102401.83
2018-05-23T20:11:33.717Z,102407.84
2018-05-23T20:14:01.418Z,102408.64
2018-05-23T20:16:29.140Z,102409.45
2018-05-23T20:18:56.776Z,102407.66
2018-05-23T20:21:24.382Z,102415.48
2018-05-23T20:23:52.112Z,102411.48
2018-05-23T20:26:19.743Z,102414.94
2018-05-23T20:28:47.398Z,102415.30
2018-05-23T20:31:15.009Z,102419.20
2018-05-23T20:33:42.624Z,102420.87
2018-05-23T20:36:10.344Z,102419.95
2018-05-23T20:38:38.090Z,102425.91
2018-05-23T20:41:05.764Z,102429.33
2018-05-23T20:43:33.377Z,102424.44
2018-05-23T20:46:01.090Z,102429.16
2018-05-23T20:48:28.706Z,102426.02
2018-05-23T20:50:56.363Z,102421.13
2018-05-23T20:53:23.979Z,102422.39
2018-05-23T20:55:51.620Z,102428.38
2018-05-23T20:58:19.299Z,102419.56
2018-05-23T21:00:47.059Z,102427.32
2018-05-23T21:03:14.661Z,102426.80
2018-05-23T21:05:42.384Z,102426.70
2018-05-23T21:08:10.049Z,102426.17
2018-05-23T21:10:37.713Z,102425.22
2018-05-23T21:13:05.340Z,102419.00
2018-05-23T21:15:32.975Z,102420.22
2018-05-23T21:18:00.591Z,102419.69
2018-05-23T21:20:28.247Z,102422.64
2018-05-23T21:22:55.857Z,102420.80
2018-05-23T21:25:23.495Z,102421.12
2018-05-23T21:27:51.196Z,102426.25
2018-05-23T21:30:18.907Z,102426.55
2018-05-23T21:32:46.571Z,102438.62
2018-05-23T21:35:14.207Z,102438.08
2018-05-23T21:37:41.823Z,102438.02
2018-05-23T21:40:09.555Z,102437.04
2018-05-23T21:42:37.172Z,102438.68
2018-05-23T21:45:04.788Z,102442.92
2018-05-23T21:47:32.425Z,102441.94
2018-05-23T21:50:00.103Z,102450.10
2018-05-23T21:52:27.767Z,102449.55
2018-05-23T21:54:55.370Z,102445.95
2018-05-23T21:57:23.082Z,102445.83
2018-05-23T21:59:50.755Z,102448.28
2018-05-23T22:02:18.397Z,102446.47
2018-05-23T22:04:46.084Z,102446.79
2018-05-23T22:07:13.720Z,102448.84
2018-05-23T22:09:41.336Z,102446.06
2018-05-23T22:12:09.068Z,102444.14
2018-05-23T22:14:36.732Z,102439.59
2018-05-23T22:17:04.803Z,102432.50
2018-05-23T22:19:32.442Z,102434.54
2018-05-23T22:22:00.120Z,102430.93
2018-05-23T22:24:27.766Z,102426.37
2018-05-23T22:26:55.405Z,102431.03
2018-05-23T22:29:23.015Z,102432.70
2018-05-23T22:31:50.645Z,102429.53
2018-05-23T22:34:18.339Z,102433.75
2018-05-23T22:36:45.987Z,102430.18
2018-05-23T22:39:13.598Z,102431.80
2018-05-23T22:41:41.239Z,102431.23
2018-05-23T22:44:08.984Z,102429.34
2018-05-23T22:46:36.647Z,102429.21
2018-05-23T22:49:04.273Z,102427.34
2018-05-23T22:51:31.888Z,102423.30
2018-05-23T22:53:59.528Z,102421.47
2018-05-23T22:56:27.196Z,102426.56
2018-05-23T22:58:54.835Z,102432.52
2018-05-23T23:01:22.452Z,102429.76
2018-05-23T23:03:50.174Z,102437.01
2018-05-23T23:06:17.791Z,102430.79
2018-05-23T23:08:45.427Z,102429.83
2018-05-23T23:11:13.066Z,102440.13
2018-05-23T23:13:40.699Z,102444.41
2018-05-23T23:16:08.318Z,102446.94
2018-05-23T23:18:35.952Z,102439.01
2018-05-23T23:21:03.619Z,102444.16
2018-05-23T23:23:31.279Z,102442.73
2018-05-23T23:25:58.899Z,102441.40
2018-05-23T23:28:26.612Z,102437.84
2018-05-23T23:30:54.262Z,102442.20
2018-05-23T23:33:21.932Z,102444.31
2018-05-23T23:35:49.538Z,102444.29
2018-05-23T23:38:17.158Z,102436.42
2018-05-23T23:40:44.815Z,102445.09
2018-05-23T23:43:12.468Z,102442.90
2018-05-23T23:45:40.091Z,102451.09
2018-05-23T23:48:07.790Z,102450.20
2018-05-23T23:50:35.463Z,102454.05
2018-05-23T23:53:03.075Z,102458.34
2018-05-23T23:55:30.755Z,102454.36
2018-05-23T23:57:58.367Z,102463.46
